Time;durP1;ratioP1;P1;durP2;ratioP2;P2;SDS_P1;SDS_P2;PMS_P1;PMS_P2;Temp;Humidity;BMP_temperature;BMP_pressure;BME280_temperature;BME280_humidity;BME280_pressure;Samples;Min_cycle;Max_cycle;Signal;HPM_P1;HPM_P2
2021/03/10 00:00:28;;;;;;;11.73;3.63;;;1.60;99.90;;;;;;5033923;28;20025;-75
2021/03/10 00:02:53;;;;;;;13.07;4.10;;;1.60;99.90;;;;;;5035317;28;20576;-76
2021/03/10 00:05:19;;;;;;;8.57;3.67;;;1.60;99.90;;;;;;5034932;28;20029;-76
2021/03/10 00:07:45;;;;;;;11.80;4.47;;;1.60;99.90;;;;;;5034846;28;20021;-76
2021/03/10 00:10:11;;;;;;;9.60;3.58;;;1.70;99.90;;;;;;5034721;28;20021;-75
2021/03/10 00:12:37;;;;;;;13.88;3.92;;;1.80;99.90;;;;;;5056735;22;20135;-75
2021/03/10 00:15:05;;;;;;;13.68;4.53;;;1.80;99.90;;;;;;5054823;28;20021;-75
2021/03/10 00:17:31;;;;;;;13.15;3.85;;;1.90;99.90;;;;;;5054653;28;20475;-75
2021/03/10 00:19:56;;;;;;;10.30;3.67;;;2.00;99.90;;;;;;5053073;28;20031;-75
2021/03/10 00:22:22;;;;;;;10.63;3.90;;;2.00;99.90;;;;;;5053115;28;20009;-75
2021/03/10 00:24:47;;;;;;;9.40;3.15;;;2.00;99.90;;;;;;5054996;28;20021;-75
2021/03/10 00:27:25;;;;;;;14.65;4.30;;;2.10;99.90;;;;;;5055096;28;20104;-75
2021/03/10 00:29:52;;;;;;;9.87;4.20;;;2.20;99.90;;;;;;5069311;22;20120;-75
2021/03/10 00:32:17;;;;;;;9.32;3.50;;;2.20;99.90;;;;;;5054821;28;20108;-75
2021/03/10 00:34:43;;;;;;;9.57;4.05;;;2.20;99.90;;;;;;5053871;28;20104;-75
2021/03/10 00:37:09;;;;;;;10.90;4.13;;;2.20;99.90;;;;;;5053994;28;20057;-75
2021/03/10 00:39:34;;;;;;;10.18;4.50;;;2.20;99.90;;;;;;5036088;28;20017;-75
2021/03/10 00:42:00;;;;;;;10.75;3.50;;;2.10;99.90;;;;;;5054267;28;20021;-75
2021/03/10 00:44:25;;;;;;;11.80;4.50;;;2.00;99.90;;;;;;5054285;28;20017;-75
2021/03/10 00:46:51;;;;;;;10.15;3.88;;;2.00;99.90;;;;;;5035855;28;20104;-75
2021/03/10 00:49:16;;;;;;;9.60;3.45;;;2.00;99.90;;;;;;5035499;28;20079;-75
2021/03/10 00:51:42;;;;;;;11.52;4.43;;;2.00;99.90;;;;;;5035847;28;20025;-75
2021/03/10 00:54:07;;;;;;;13.13;5.05;;;1.90;99.90;;;;;;5053669;28;20041;-75
2021/03/10 00:56:32;;;;;;;11.23;4.15;;;1.90;99.90;;;;;;5053415;28;20028;-74
2021/03/10 00:58:58;;;;;;;9.60;4.07;;;1.80;99.90;;;;;;5035390;28;20393;-74
2021/03/10 01:01:24;;;;;;;9.93;4.22;;;1.80;99.90;;;;;;5054073;28;20024;-74
2021/03/10 01:03:49;;;;;;;14.43;4.50;;;1.80;99.90;;;;;;5053592;28;20078;-75
2021/03/10 01:06:15;;;;;;;12.48;5.45;;;1.70;99.90;;;;;;5053440;28;20112;-75
2021/03/10 01:08:41;;;;;;;11.95;4.78;;;1.80;99.90;;;;;;5053504;28;20383;-75
2021/03/10 01:11:06;;;;;;;12.25;4.72;;;1.80;99.90;;;;;;5053580;28;20025;-75
2021/03/10 01:13:32;;;;;;;13.05;4.93;;;1.80;99.90;;;;;;5075424;22;20098;-74
2021/03/10 01:15:58;;;;;;;15.25;5.20;;;1.80;99.90;;;;;;5073911;28;20025;-74
2021/03/10 01:18:24;;;;;;;12.02;4.82;;;1.90;99.90;;;;;;5073623;28;20032;-74
2021/03/10 01:20:49;;;;;;;11.65;4.50;;;1.80;99.90;;;;;;5073992;28;20013;-74
2021/03/10 01:23:15;;;;;;;10.32;4.65;;;1.80;99.90;;;;;;5073547;28;20023;-75
2021/03/10 01:25:41;;;;;;;11.57;4.80;;;1.90;99.90;;;;;;5073638;28;20467;-74
2021/03/10 01:28:06;;;;;;;11.68;4.38;;;1.90;99.90;;;;;;5073611;28;20032;-74
2021/03/10 01:30:32;;;;;;;10.25;4.80;;;2.00;99.90;;;;;;5073667;28;20029;-74
2021/03/10 01:33:19;;;;;;;11.90;5.05;;;2.00;99.90;;;;;;5074153;28;20025;-74
2021/03/10 01:35:44;;;;;;;10.82;4.45;;;2.00;99.90;;;;;;5072511;28;20475;-74
2021/03/10 01:38:10;;;;;;;11.68;4.72;;;2.10;99.90;;;;;;5074004;28;20025;-74
2021/03/10 01:40:36;;;;;;;12.18;5.00;;;2.10;99.90;;;;;;5073473;28;20028;-74
2021/03/10 01:43:03;;;;;;;11.20;5.18;;;2.20;99.90;;;;;;5072326;28;20074;-74
2021/03/10 01:45:29;;;;;;;12.82;5.10;;;2.20;99.90;;;;;;5073485;28;20021;-74
2021/03/10 01:47:54;;;;;;;12.57;4.72;;;2.30;99.90;;;;;;5073254;28;20039;-75
2021/03/10 01:50:21;;;;;;;12.02;5.10;;;2.30;99.90;;;;;;5074065;28;20149;-75
2021/03/10 01:52:47;;;;;;;7.47;3.85;;;2.30;99.90;;;;;;5073370;28;20020;-74
2021/03/10 01:55:13;;;;;;;11.15;4.45;;;2.30;99.90;;;;;;5071998;28;20016;-74
2021/03/10 01:57:39;;;;;;;10.07;4.85;;;2.40;99.90;;;;;;5071925;28;20025;-75
2021/03/10 02:00:07;;;;;;;11.30;4.40;;;2.40;99.90;;;;;;5071841;28;20028;-74
2021/03/10 02:02:33;;;;;;;13.93;5.40;;;2.50;99.90;;;;;;5077318;28;20017;-74
2021/03/10 02:05:00;;;;;;;11.88;5.03;;;2.50;99.90;;;;;;5077045;28;20070;-74
2021/03/10 02:07:33;;;;;;;8.15;4.13;;;2.50;99.90;;;;;;5075547;22;20053;-74
2021/03/10 02:10:05;;;;;;;9.57;4.25;;;2.60;99.90;;;;;;5056886;28;20025;-74
2021/03/10 02:12:47;;;;;;;10.50;4.93;;;2.60;99.90;;;;;;5056863;28;20049;-74
2021/03/10 02:15:16;;;;;;;13.52;4.75;;;2.70;99.90;;;;;;5039039;28;20031;-74
2021/03/10 02:17:51;;;;;;;9.40;4.10;;;2.80;99.90;;;;;;5056661;28;20029;-75
2021/03/10 02:20:32;;;;;;;13.88;4.63;;;2.80;99.90;;;;;;5041383;28;20446;-74
2021/03/10 02:23:13;;;;;;;11.82;4.97;;;2.80;99.90;;;;;;5056766;28;20100;-74
2021/03/10 02:25:54;;;;;;;11.00;4.75;;;2.90;99.90;;;;;;5038692;28;20047;-74
2021/03/10 02:28:20;;;;;;;11.75;4.72;;;2.90;99.90;;;;;;5056631;28;20108;-74
2021/03/10 02:30:49;;;;;;;9.27;4.30;;;2.90;99.90;;;;;;5038411;28;20391;-74
2021/03/10 02:33:21;;;;;;;11.73;4.90;;;3.00;99.90;;;;;;5056635;28;20490;-74
2021/03/10 02:35:53;;;;;;;12.40;5.68;;;3.00;99.90;;;;;;5056375;28;20103;-74
2021/03/10 02:38:22;;;;;;;10.50;4.80;;;3.00;99.90;;;;;;5056050;28;20025;-73
2021/03/10 02:40:50;;;;;;;13.00;5.38;;;3.10;99.90;;;;;;5038330;28;20053;-74
2021/03/10 02:43:17;;;;;;;9.83;4.73;;;3.10;99.90;;;;;;5056203;28;20055;-74
2021/03/10 02:45:43;;;;;;;11.48;4.97;;;3.10;99.90;;;;;;5038174;28;20075;-74
2021/03/10 02:48:10;;;;;;;13.13;5.00;;;3.20;99.90;;;;;;5037781;28;20049;-74
2021/03/10 02:50:36;;;;;;;12.57;4.20;;;3.20;99.90;;;;;;5056311;28;20033;-74
2021/03/10 02:53:04;;;;;;;9.13;4.47;;;3.10;99.90;;;;;;5038285;28;20053;-74
2021/03/10 02:55:31;;;;;;;11.50;4.93;;;3.20;99.90;;;;;;5056182;28;20033;-74
2021/03/10 02:57:58;;;;;;;11.18;4.65;;;3.20;99.90;;;;;;5055512;28;20029;-74
2021/03/10 03:00:25;;;;;;;7.70;4.05;;;3.30;99.90;;;;;;5055922;28;20021;-74
2021/03/10 03:02:50;;;;;;;8.60;4.50;;;3.20;99.90;;;;;;5055889;28;20024;-74
2021/03/10 03:05:17;;;;;;;10.13;4.38;;;3.20;99.90;;;;;;5055652;28;20048;-73
2021/03/10 03:07:45;;;;;;;10.93;4.95;;;3.20;99.90;;;;;;5055652;28;20028;-74
2021/03/10 03:10:15;;;;;;;23.07;5.40;;;3.10;99.90;;;;;;5055576;28;20021;-74
2021/03/10 03:12:42;;;;;;;9.50;4.07;;;3.10;99.90;;;;;;5056088;28;20316;-74
2021/03/10 03:15:20;;;;;;;11.48;4.55;;;3.10;99.90;;;;;;5055964;28;20021;-75
2021/03/10 03:17:47;;;;;;;11.93;4.63;;;3.00;99.90;;;;;;5072499;22;20419;-74
2021/03/10 03:20:15;;;;;;;11.25;5.07;;;3.00;99.90;;;;;;5055522;28;20365;-74
2021/03/10 03:22:46;;;;;;;9.57;5.07;;;3.50;99.90;;;;;;5055587;28;20021;-75
2021/03/10 03:25:19;;;;;;;13.43;5.32;;;3.00;99.90;;;;;;5054269;28;20057;-74
2021/03/10 03:27:49;;;;;;;16.35;6.10;;;3.00;99.90;;;;;;5048047;28;20026;-74
2021/03/10 03:30:15;;;;;;;11.23;5.72;;;3.00;99.90;;;;;;5034070;28;20029;-74
2021/03/10 03:32:43;;;;;;;12.27;5.70;;;3.00;99.90;;;;;;5035181;28;20059;-74
2021/03/10 03:35:11;;;;;;;11.18;5.68;;;3.00;99.90;;;;;;5035217;28;20526;-75
2021/03/10 03:37:37;;;;;;;14.18;5.50;;;3.00;99.90;;;;;;5039260;28;20128;-74
2021/03/10 03:40:06;;;;;;;17.58;6.05;;;3.00;99.90;;;;;;5055188;28;20028;-74
2021/03/10 03:42:32;;;;;;;12.30;5.10;;;3.00;99.90;;;;;;5055050;28;20013;-74
2021/03/10 03:44:59;;;;;;;12.68;5.65;;;3.00;99.90;;;;;;5055428;28;20492;-74
2021/03/10 03:47:25;;;;;;;15.68;5.30;;;3.00;99.90;;;;;;5051140;28;20032;-74
2021/03/10 03:49:51;;;;;;;12.50;5.22;;;2.90;99.90;;;;;;5034985;28;20093;-74
2021/03/10 03:52:17;;;;;;;11.93;4.82;;;2.90;99.90;;;;;;5034303;28;20060;-74
2021/03/10 03:54:43;;;;;;;14.85;5.80;;;2.90;99.90;;;;;;5035131;28;20105;-75
2021/03/10 03:57:08;;;;;;;11.38;5.85;;;2.90;99.90;;;;;;5033662;28;20020;-74
2021/03/10 03:59:37;;;;;;;12.43;6.05;;;2.90;99.90;;;;;;5034847;28;20021;-74
2021/03/10 04:02:03;;;;;;;12.98;4.82;;;2.90;99.90;;;;;;5033946;28;20109;-74
2021/03/10 04:04:29;;;;;;;15.30;5.93;;;2.90;99.90;;;;;;5034711;28;20068;-74
2021/03/10 04:06:54;;;;;;;12.32;5.78;;;3.30;99.90;;;;;;5034741;28;20155;-74
2021/03/10 04:09:21;;;;;;;14.95;6.25;;;2.90;99.90;;;;;;5053793;28;20022;-74
2021/03/10 04:11:48;;;;;;;12.40;5.90;;;2.90;99.90;;;;;;5054913;28;20422;-74
2021/03/10 04:14:14;;;;;;;13.77;5.97;;;2.90;99.90;;;;;;5053480;28;20047;-74
2021/03/10 04:16:40;;;;;;;15.45;6.70;;;2.90;99.90;;;;;;5042415;28;20103;-74
2021/03/10 04:19:06;;;;;;;15.13;6.10;;;3.00;99.90;;;;;;5034363;28;20030;-74
2021/03/10 04:21:32;;;;;;;12.55;6.13;;;3.00;99.90;;;;;;5035088;28;20067;-74
2021/03/10 04:23:58;;;;;;;14.45;6.70;;;3.00;99.90;;;;;;5032803;28;20022;-74
2021/03/10 04:26:24;;;;;;;16.45;6.68;;;3.00;99.90;;;;;;5066969;22;20049;-74
2021/03/10 04:28:50;;;;;;;19.05;7.38;;;3.00;99.90;;;;;;5054537;28;20025;-74
2021/03/10 04:31:17;;;;;;;15.32;6.80;;;3.00;99.90;;;;;;5054105;28;20029;-74
2021/03/10 04:33:42;;;;;;;15.90;6.57;;;3.00;99.90;;;;;;5036524;28;20024;-74
2021/03/10 04:36:08;;;;;;;19.17;7.80;;;3.10;99.90;;;;;;5036123;28;20036;-74
2021/03/10 04:38:34;;;;;;;13.23;6.25;;;3.10;99.90;;;;;;5036480;28;20033;-75
2021/03/10 04:41:00;;;;;;;15.68;6.97;;;3.10;99.90;;;;;;5054184;28;20472;-75
2021/03/10 04:43:25;;;;;;;15.30;6.22;;;3.10;99.90;;;;;;5054182;28;20032;-74
2021/03/10 04:45:51;;;;;;;20.70;7.97;;;3.10;99.90;;;;;;5054018;28;20013;-75
2021/03/10 04:48:17;;;;;;;16.08;7.32;;;3.20;99.90;;;;;;5053784;28;20025;-74
2021/03/10 04:50:42;;;;;;;17.63;6.88;;;3.20;99.90;;;;;;5054181;28;20464;-74
2021/03/10 04:53:08;;;;;;;21.17;8.02;;;3.20;99.90;;;;;;5036185;28;20025;-74
2021/03/10 04:55:33;;;;;;;17.58;8.25;;;3.20;99.90;;;;;;5054208;28;20028;-74
2021/03/10 04:57:59;;;;;;;18.33;7.90;;;3.20;99.90;;;;;;5053386;28;20083;-74
2021/03/10 05:00:24;;;;;;;21.65;8.13;;;3.30;99.90;;;;;;5036208;28;20163;-74
2021/03/10 05:02:50;;;;;;;16.33;7.85;;;3.30;99.90;;;;;;5053626;28;20100;-74
2021/03/10 05:05:16;;;;;;;24.02;8.82;;;3.30;99.90;;;;;;5054061;28;20032;-74
2021/03/10 05:07:41;;;;;;;18.70;8.05;;;3.30;99.90;;;;;;5053353;28;20396;-74
2021/03/10 05:10:08;;;;;;;20.27;7.78;;;3.30;99.90;;;;;;5053482;28;20038;-74
2021/03/10 05:12:35;;;;;;;19.83;7.55;;;3.30;99.90;;;;;;5035851;28;20037;-75
2021/03/10 05:15:02;;;;;;;19.67;8.07;;;3.40;99.90;;;;;;5036079;28;20028;-75
2021/03/10 05:17:28;;;;;;;17.92;8.27;;;3.30;99.90;;;;;;5035520;28;20052;-74
2021/03/10 05:19:54;;;;;;;18.85;7.85;;;3.40;99.90;;;;;;5053760;28;20021;-74
2021/03/10 05:22:20;;;;;;;19.70;8.93;;;3.40;99.90;;;;;;5053569;28;20096;-74
2021/03/10 05:24:46;;;;;;;20.77;8.82;;;3.40;99.90;;;;;;5035556;28;20052;-74
2021/03/10 05:27:13;;;;;;;24.65;9.23;;;3.50;99.90;;;;;;5035274;28;20514;-74
2021/03/10 05:29:39;;;;;;;20.83;7.88;;;3.50;99.90;;;;;;5053277;28;20017;-74
2021/03/10 05:32:05;;;;;;;21.55;8.38;;;3.50;99.90;;;;;;5035515;28;20017;-74
2021/03/10 05:34:34;;;;;;;20.67;9.23;;;3.50;99.90;;;;;;5035501;28;20025;-75
2021/03/10 05:36:59;;;;;;;;;;;3.50;99.90;;;;;;5057129;28;20080;-74
2021/03/10 05:39:25;;;;;;;25.90;9.88;;;3.50;99.90;;;;;;5057595;28;19917;-74
2021/03/10 05:41:50;;;;;;;24.73;11.23;;;3.50;99.90;;;;;;5057603;28;20063;-74
2021/03/10 05:44:16;;;;;;;25.63;9.88;;;3.60;99.90;;;;;;5057509;28;20033;-74
2021/03/10 05:46:42;;;;;;;24.42;10.63;;;3.50;99.90;;;;;;5057142;28;20020;-75
2021/03/10 05:49:08;;;;;;;32.08;11.55;;;3.50;99.90;;;;;;5056945;28;20021;-74
2021/03/10 05:51:35;;;;;;;28.63;11.07;;;3.60;99.90;;;;;;5057298;28;20613;-74
2021/03/10 05:54:02;;;;;;;28.33;11.88;;;3.60;99.90;;;;;;5057141;28;20017;-75
2021/03/10 05:56:28;;;;;;;25.55;11.18;;;4.60;99.90;;;;;;5057328;28;20019;-74
2021/03/10 05:59:03;;;;;;;31.77;11.60;;;3.60;99.90;;;;;;5057428;28;20135;-74
2021/03/10 06:01:29;;;;;;;30.42;11.63;;;3.60;99.90;;;;;;5057074;28;20434;-74
2021/03/10 06:04:00;;;;;;;32.65;12.27;;;3.70;99.90;;;;;;5039079;28;20025;-74
2021/03/10 06:06:26;;;;;;;32.50;12.63;;;3.70;99.90;;;;;;5056910;28;20021;-74
2021/03/10 06:08:52;;;;;;;32.08;12.63;;;3.70;99.90;;;;;;5057399;28;20075;-74
2021/03/10 06:11:25;;;;;;;34.03;14.07;;;3.70;99.90;;;;;;5039119;28;20480;-74
2021/03/10 06:13:51;;;;;;;37.80;12.90;;;3.70;99.90;;;;;;5057033;28;20480;-74
2021/03/10 06:16:25;;;;;;;36.65;12.52;;;3.80;99.90;;;;;;5056660;28;20035;-73
2021/03/10 06:19:04;;;;;;;34.72;13.45;;;3.80;99.90;;;;;;5057051;28;20029;-74
2021/03/10 06:21:30;;;;;;;;;;;3.70;99.90;;;;;;5091595;22;20048;-74
2021/03/10 06:23:55;;;;;;;36.47;13.32;;;3.70;99.90;;;;;;5078538;22;19921;-74
2021/03/10 06:26:31;;;;;;;37.78;13.27;;;3.70;99.90;;;;;;5056848;28;20033;-75
2021/03/10 06:28:59;;;;;;;36.72;13.63;;;3.70;99.90;;;;;;5056490;28;20021;-75
2021/03/10 06:31:31;;;;;;;36.55;14.43;;;3.70;99.90;;;;;;5038602;28;20108;-74
2021/03/10 06:34:11;;;;;;;38.53;14.93;;;3.80;99.90;;;;;;5057139;28;20021;-74
2021/03/10 06:36:41;;;;;;;40.78;15.30;;;3.70;99.90;;;;;;5056225;28;20387;-75
2021/03/10 06:39:09;;;;;;;38.50;14.60;;;3.80;99.90;;;;;;5065645;22;20119;-74
2021/03/10 06:44:21;;;;;;;41.70;15.73;;;3.90;99.90;;;;;;5035195;28;20052;-74
2021/03/10 06:46:57;;;;;;;38.67;14.40;;;3.90;99.90;;;;;;5035743;28;20028;-74
2021/03/10 06:49:30;;;;;;;38.42;16.85;;;3.90;99.90;;;;;;5036836;28;20531;-74
2021/03/10 06:52:02;;;;;;;41.47;17.75;;;3.90;99.90;;;;;;5036275;28;20026;-76
2021/03/10 06:54:29;;;;;;;42.25;16.08;;;3.90;99.90;;;;;;5019213;28;20107;-76
2021/03/10 06:57:01;;;;;;;41.17;16.48;;;3.90;99.90;;;;;;5036024;28;20045;-74
2021/03/10 06:59:38;;;;;;;44.53;16.38;;;4.00;99.90;;;;;;5018207;28;20111;-78
2021/03/10 07:02:05;;;;;;;42.10;16.70;;;4.00;99.90;;;;;;5035367;28;20025;-75
2021/03/10 07:04:33;;;;;;;40.50;15.85;;;4.00;99.90;;;;;;5036346;28;20075;-77
2021/03/10 07:07:00;;;;;;;43.28;16.45;;;4.00;99.90;;;;;;5018278;28;20030;-74
2021/03/10 07:09:26;;;;;;;46.10;16.65;;;4.10;99.90;;;;;;5018452;28;20488;-74
2021/03/10 07:11:52;;;;;;;46.42;18.05;;;4.00;99.90;;;;;;5018011;28;20041;-74
2021/03/10 07:14:19;;;;;;;45.92;17.08;;;4.10;99.90;;;;;;5036038;28;20021;-76
2021/03/10 07:16:45;;;;;;;43.80;18.15;;;4.20;99.90;;;;;;5035317;28;20018;-76
2021/03/10 07:19:10;;;;;;;50.25;18.48;;;4.20;99.90;;;;;;5035356;28;20021;-73
2021/03/10 07:21:50;;;;;;;45.00;18.77;;;4.20;99.90;;;;;;5036127;28;20030;-74
2021/03/10 07:24:20;;;;;;;46.13;18.65;;;4.20;99.90;;;;;;5031371;28;20582;-76
2021/03/10 07:26:46;;;;;;;45.88;18.70;;;4.20;99.90;;;;;;5035662;28;20067;-73
2021/03/10 07:29:13;;;;;;;48.22;18.15;;;4.30;99.90;;;;;;5017724;28;20071;-73
2021/03/10 07:31:39;;;;;;;50.65;17.90;;;4.30;99.90;;;;;;5018777;28;20079;-74
2021/03/10 07:34:05;;;;;;;47.63;18.73;;;4.30;99.90;;;;;;5035657;28;20034;-76
2021/03/10 07:36:42;;;;;;;49.92;18.77;;;4.40;99.90;;;;;;5058041;22;20052;-73
2021/03/10 07:39:24;;;;;;;47.15;17.38;;;4.50;99.90;;;;;;5071239;22;20045;-72
2021/03/10 07:41:53;;;;;;;46.47;18.20;;;4.50;99.90;;;;;;5055853;28;20418;-74
2021/03/10 07:44:23;;;;;;;44.13;18.48;;;4.50;99.90;;;;;;5054139;28;20045;-75
2021/03/10 07:47:02;;;;;;;47.55;19.10;;;4.60;99.90;;;;;;5084787;22;20445;-75
2021/03/10 07:49:28;;;;;;;56.13;19.13;;;4.60;99.90;;;;;;5075234;28;20104;-75
2021/03/10 07:52:10;;;;;;;45.55;18.35;;;4.70;99.90;;;;;;5073199;28;20443;-73
2021/03/10 07:54:38;;;;;;;47.22;17.98;;;4.70;99.90;;;;;;5063798;28;20016;-75
2021/03/10 07:57:11;;;;;;;46.97;17.67;;;4.70;99.90;;;;;;5070882;28;20429;-75
2021/03/10 07:59:38;;;;;;;48.72;18.58;;;4.80;99.90;;;;;;5054194;28;20028;-74
2021/03/10 08:02:09;;;;;;;46.08;18.02;;;4.80;99.90;;;;;;5055592;28;20025;-75
2021/03/10 08:04:38;;;;;;;49.40;17.92;;;4.90;99.90;;;;;;5056033;28;20021;-73
2021/03/10 08:07:04;;;;;;;46.22;19.00;;;5.00;99.90;;;;;;5055670;28;20043;-75
2021/03/10 08:09:30;;;;;;;43.28;17.58;;;5.00;99.90;;;;;;5055577;28;20535;-73
2021/03/10 08:12:12;;;;;;;46.83;18.38;;;5.10;99.90;;;;;;5054070;28;20021;-73
2021/03/10 08:14:42;;;;;;;42.63;19.23;;;5.20;99.90;;;;;;5055364;28;20017;-74
2021/03/10 08:17:09;;;;;;;43.65;18.15;;;5.20;99.90;;;;;;5056843;28;20021;-75
2021/03/10 08:19:35;;;;;;;47.53;19.35;;;5.30;99.90;;;;;;5075028;28;20021;-74
2021/03/10 08:22:01;;;;;;;44.35;17.58;;;5.30;99.90;;;;;;5073525;28;20024;-74
2021/03/10 08:24:28;;;;;;;40.30;17.52;;;5.30;99.90;;;;;;5075196;28;20471;-73
2021/03/10 08:26:56;;;;;;;44.20;17.73;;;5.40;99.90;;;;;;5074336;28;20043;-75
2021/03/10 08:29:22;;;;;;;40.83;19.17;;;5.50;99.90;;;;;;5073527;28;20029;-73
2021/03/10 08:31:53;;;;;;;43.72;18.67;;;5.50;99.90;;;;;;5074902;28;20020;-74
2021/03/10 08:34:38;;;;;;;44.42;18.45;;;5.60;99.90;;;;;;5074764;28;20031;-74
2021/03/10 08:37:10;;;;;;;41.53;18.00;;;5.60;99.90;;;;;;5062940;28;20075;-75
2021/03/10 08:39:47;;;;;;;41.72;17.70;;;5.70;99.90;;;;;;5061831;28;20479;-74
2021/03/10 08:42:22;;;;;;;40.08;17.75;;;5.80;99.90;;;;;;5074682;28;20052;-73
2021/03/10 08:44:50;;;;;;;41.22;17.95;;;5.80;99.90;;;;;;5074751;28;20470;-73
2021/03/10 08:47:17;;;;;;;46.47;19.25;;;5.80;99.90;;;;;;5074143;28;20379;-74
2021/03/10 08:49:44;;;;;;;38.28;17.23;;;5.90;99.90;;;;;;5057334;28;20055;-75
2021/03/10 08:52:13;;;;;;;43.65;19.15;;;6.00;99.90;;;;;;5063828;28;20029;-75
2021/03/10 08:54:46;;;;;;;38.72;17.30;;;6.00;99.90;;;;;;5072794;28;20019;-74
2021/03/10 08:57:11;;;;;;;39.67;17.58;;;6.10;99.90;;;;;;5069388;28;20016;-75
2021/03/10 08:59:37;;;;;;;42.80;17.67;;;8.80;99.90;;;;;;5071292;28;20024;-75
2021/03/10 09:02:03;;;;;;;42.88;17.05;;;6.20;99.90;;;;;;5073967;28;20021;-75
2021/03/10 09:04:29;;;;;;;41.53;17.17;;;6.20;99.90;;;;;;5090312;22;20514;-73
2021/03/10 09:06:57;;;;;;;36.55;17.10;;;6.30;99.90;;;;;;5068278;28;20025;-74
2021/03/10 09:09:24;;;;;;;39.63;17.30;;;6.30;99.90;;;;;;5073827;28;20025;-73
2021/03/10 09:11:52;;;;;;;38.35;14.85;;;6.30;99.90;;;;;;5073992;28;20029;-74
2021/03/10 09:14:18;;;;;;;35.75;15.63;;;6.30;99.90;;;;;;5073524;28;20107;-73
2021/03/10 09:16:54;;;;;;;38.22;17.08;;;6.40;99.90;;;;;;5065745;28;20075;-74
2021/03/10 09:19:36;;;;;;;36.72;15.60;;;6.50;99.90;;;;;;5071158;28;20036;-74
2021/03/10 09:22:13;;;;;;;37.10;15.98;;;6.60;99.90;;;;;;5071842;28;20028;-74
2021/03/10 09:24:56;;;;;;;36.47;14.68;;;6.60;99.90;;;;;;5044027;28;20033;-74
2021/03/10 09:27:27;;;;;;;36.10;14.95;;;6.60;99.90;;;;;;5063046;28;20017;-74
2021/03/10 09:30:08;;;;;;;38.85;15.50;;;6.60;99.90;;;;;;5055762;28;20036;-74
2021/03/10 09:32:39;;;;;;;35.25;15.02;;;6.70;99.90;;;;;;5049632;28;20013;-74
2021/03/10 09:35:29;;;;;;;46.10;16.30;;;6.70;99.90;;;;;;5053017;28;20029;-74
2021/03/10 09:38:03;;;;;;;29.30;12.77;;;6.70;99.90;;;;;;5066843;28;20414;-73
2021/03/10 09:40:39;;;;;;;34.03;13.45;;;6.80;99.90;;;;;;5068041;28;20482;-74
2021/03/10 09:43:08;;;;;;;31.88;14.13;;;6.90;99.90;;;;;;5070605;28;20036;-74
2021/03/10 09:45:35;;;;;;;30.83;13.90;;;6.90;99.90;;;;;;5073213;28;20103;-73
2021/03/10 09:48:15;;;;;;;31.92;13.48;;;7.00;99.90;;;;;;5073009;28;20035;-73
2021/03/10 09:50:46;;;;;;;33.72;14.75;;;7.10;99.90;;;;;;5071532;28;20029;-73
2021/03/10 09:53:25;;;;;;;40.33;16.02;;;7.30;99.90;;;;;;5060128;28;20048;-72
2021/03/10 09:56:03;;;;;;;34.95;14.82;;;7.30;99.90;;;;;;5052736;28;20028;-74
2021/03/10 09:58:29;;;;;;;28.55;12.80;;;7.40;99.90;;;;;;5052169;28;20024;-75
2021/03/10 10:00:59;;;;;;;29.63;12.43;;;7.50;99.90;;;;;;5054387;28;20137;-74
2021/03/10 10:03:26;;;;;;;30.13;12.32;;;7.60;99.90;;;;;;5051672;28;20029;-74
2021/03/10 10:06:02;;;;;;;27.13;11.30;;;7.60;99.90;;;;;;5051837;28;20472;-74
2021/03/10 10:08:27;;;;;;;26.55;10.85;;;7.60;99.90;;;;;;5053239;28;20100;-75
2021/03/10 10:10:53;;;;;;;26.10;9.70;;;7.70;99.90;;;;;;5051754;28;20103;-74
2021/03/10 10:13:19;;;;;;;23.88;10.65;;;7.80;99.90;;;;;;5053038;28;20104;-73
2021/03/10 10:15:44;;;;;;;27.88;10.82;;;7.90;99.90;;;;;;5053506;28;20043;-74
2021/03/10 10:18:10;;;;;;;26.75;10.38;;;8.00;99.90;;;;;;5052974;28;20025;-75
2021/03/10 10:20:35;;;;;;;22.40;9.02;;;8.00;99.90;;;;;;5052882;28;20040;-75
2021/03/10 10:23:03;;;;;;;21.15;9.00;;;8.00;99.90;;;;;;5054503;28;20537;-73
2021/03/10 10:25:29;;;;;;;23.50;8.90;;;8.00;99.90;;;;;;5055910;28;20044;-75
2021/03/10 10:27:54;;;;;;;22.65;9.63;;;8.00;99.90;;;;;;5068504;28;20025;-74
2021/03/10 10:30:20;;;;;;;24.80;9.88;;;8.10;99.90;;;;;;5056800;28;20539;-75
2021/03/10 10:32:48;;;;;;;24.85;9.93;;;8.10;99.90;;;;;;5062992;28;20070;-74
2021/03/10 10:35:15;;;;;;;21.23;8.82;;;8.70;99.90;;;;;;5077201;28;20017;-73
2021/03/10 10:37:41;;;;;;;21.10;9.82;;;8.10;99.90;;;;;;5076291;28;20142;-74
2021/03/10 10:40:09;;;;;;;23.02;9.65;;;8.20;99.90;;;;;;5064077;28;20074;-74
2021/03/10 10:42:35;;;;;;;22.77;9.57;;;8.30;99.90;;;;;;5073347;28;20017;-74
2021/03/10 10:45:01;;;;;;;21.85;9.88;;;8.30;99.90;;;;;;5075357;28;20027;-76
2021/03/10 10:47:26;;;;;;;24.92;10.77;;;8.40;99.90;;;;;;5074412;28;20029;-74
2021/03/10 10:49:53;;;;;;;20.73;9.95;;;8.40;99.90;;;;;;5074905;28;20466;-74
2021/03/10 10:52:19;;;;;;;19.48;9.57;;;8.40;99.90;;;;;;5076173;28;20043;-74
2021/03/10 10:54:45;;;;;;;24.40;10.05;;;8.50;99.90;;;;;;5074906;28;20052;-74
2021/03/10 10:57:11;;;;;;;23.83;10.45;;;8.50;99.90;;;;;;5075400;28;20044;-73
2021/03/10 10:59:37;;;;;;;24.35;10.15;;;8.50;99.90;;;;;;5076170;28;20020;-73
2021/03/10 11:02:03;;;;;;;22.67;9.80;;;8.50;99.90;;;;;;5064693;28;20032;-73
2021/03/10 11:04:28;;;;;;;23.27;9.88;;;8.50;99.90;;;;;;5054765;28;20048;-73
2021/03/10 11:06:54;;;;;;;27.20;10.55;;;8.60;99.90;;;;;;5056122;28;20522;-73
2021/03/10 11:09:19;;;;;;;24.45;8.90;;;8.70;99.90;;;;;;5054568;28;20021;-74
2021/03/10 11:11:45;;;;;;;23.92;10.20;;;8.80;99.90;;;;;;5054243;28;20029;-74
2021/03/10 11:14:11;;;;;;;24.35;10.15;;;8.80;99.90;;;;;;5055593;28;20103;-74
2021/03/10 11:16:36;;;;;;;25.58;10.05;;;8.90;99.90;;;;;;5054509;28;20029;-74
2021/03/10 11:19:02;;;;;;;20.63;9.52;;;8.80;99.90;;;;;;5054179;28;20033;-73
2021/03/10 11:21:27;;;;;;;19.77;9.07;;;8.80;99.90;;;;;;5055827;28;20372;-76
2021/03/10 11:23:53;;;;;;;29.88;10.15;;;8.90;99.90;;;;;;5055473;28;20092;-73
2021/03/10 11:26:19;;;;;;;19.02;9.38;;;8.90;99.90;;;;;;5055462;28;20017;-73
2021/03/10 11:28:44;;;;;;;23.05;9.43;;;8.90;99.90;;;;;;5054191;28;20025;-73
2021/03/10 11:31:10;;;;;;;26.05;10.15;;;8.80;99.90;;;;;;5054377;28;20024;-73
2021/03/10 11:33:36;;;;;;;24.98;10.20;;;8.90;99.80;;;;;;5054231;28;20033;-74
2021/03/10 11:36:02;;;;;;;26.58;9.18;;;8.80;99.10;;;;;;5055395;28;20032;-74
2021/03/10 11:38:28;;;;;;;20.75;8.73;;;8.90;99.40;;;;;;5055847;28;20033;-74
2021/03/10 11:40:55;;;;;;;20.80;10.40;;;8.90;98.90;;;;;;5055820;28;20048;-75
2021/03/10 11:43:20;;;;;;;25.35;9.48;;;8.80;99.20;;;;;;5054252;28;20017;-77
2021/03/10 11:45:46;;;;;;;25.60;10.10;;;9.00;99.90;;;;;;5057725;28;20035;-76
2021/03/10 11:48:11;;;;;;;22.02;10.15;;;9.10;98.90;;;;;;5069729;28;20099;-74
2021/03/10 11:50:37;;;;;;;22.77;9.40;;;9.20;97.30;;;;;;5073749;28;20044;-74
2021/03/10 11:53:04;;;;;;;20.15;9.30;;;9.20;95.40;;;;;;5072734;28;20103;-74
2021/03/10 11:55:31;;;;;;;20.08;8.70;;;9.20;96.40;;;;;;5074276;28;20020;-74
2021/03/10 11:57:56;;;;;;;23.23;9.73;;;9.20;95.20;;;;;;5073688;28;20495;-74
2021/03/10 12:00:22;;;;;;;19.50;8.77;;;9.30;96.10;;;;;;5074404;28;20025;-75
2021/03/10 12:02:48;;;;;;;19.45;8.63;;;9.40;94.70;;;;;;5057596;28;20033;-74
2021/03/10 12:05:14;;;;;;;29.05;9.68;;;9.50;94.70;;;;;;5053370;28;20388;-74
2021/03/10 12:07:40;;;;;;;23.13;9.98;;;9.60;93.80;;;;;;5053941;28;20040;-74
2021/03/10 12:10:06;;;;;;;18.95;8.80;;;9.80;93.40;;;;;;5053468;28;20490;-74
2021/03/10 12:12:31;;;;;;;23.70;9.52;;;10.00;93.70;;;;;;5054906;28;20427;-74
2021/03/10 12:14:57;;;;;;;25.25;9.95;;;10.10;92.20;;;;;;5054414;28;20080;-74
2021/03/10 12:17:22;;;;;;;23.20;8.38;;;10.20;91.10;;;;;;5054756;28;20471;-74
2021/03/10 12:19:48;;;;;;;18.05;8.75;;;10.20;91.20;;;;;;5054366;28;20024;-77
2021/03/10 12:22:13;;;;;;;19.92;8.68;;;10.20;90.70;;;;;;5053126;28;20013;-77
2021/03/10 12:24:39;;;;;;;22.25;9.82;;;10.20;90.30;;;;;;5054126;28;20047;-74
2021/03/10 12:27:07;;;;;;;18.60;8.13;;;10.30;91.50;;;;;;5052746;28;20415;-76
2021/03/10 12:29:34;;;;;;;21.77;8.63;;;10.40;90.10;;;;;;5052769;28;20029;-74
2021/03/10 12:32:00;;;;;;;20.10;8.98;;;10.50;87.20;;;;;;5035120;28;20030;-77
2021/03/10 12:34:25;;;;;;;30.60;9.25;;;10.50;89.00;;;;;;5054903;28;20044;-74
2021/03/10 12:36:51;;;;;;;24.27;9.82;;;10.50;87.50;;;;;;5053810;28;20476;-74
2021/03/10 12:39:17;;;;;;;20.50;8.35;;;10.50;88.40;;;;;;5053053;28;20021;-76
2021/03/10 12:41:42;;;;;;;26.80;9.63;;;10.40;86.30;;;;;;5052917;28;20063;-76
2021/03/10 12:44:08;;;;;;;20.05;9.18;;;10.20;88.20;;;;;;5053197;28;20406;-74
2021/03/10 12:46:34;;;;;;;26.95;8.85;;;10.20;89.60;;;;;;5052324;28;20021;-74
2021/03/10 12:49:00;;;;;;;23.98;9.38;;;10.30;87.90;;;;;;5066840;28;20035;-77